sensor_id;sensor_type;location;lat;lon;timestamp;P1;durP1;ratioP1;P2;durP2;ratioP2
26486;SDS011;14425;56.136;40.360;2024-03-17T00:00:49;21.80;;;3.22;;
26486;SDS011;14425;56.136;40.360;2024-03-17T00:03:14;26.25;;;4.05;;
26486;SDS011;14425;56.136;40.360;2024-03-17T00:05:40;29.67;;;4.07;;
26486;SDS011;14425;56.136;40.360;2024-03-17T00:08:05;21.33;;;3.67;;
26486;SDS011;14425;56.136;40.360;2024-03-17T00:10:31;18.30;;;3.83;;
26486;SDS011;14425;56.136;40.360;2024-03-17T00:12:56;37.30;;;4.13;;
26486;SDS011;14425;56.136;40.360;2024-03-17T00:15:23;27.75;;;4.43;;
26486;SDS011;14425;56.136;40.360;2024-03-17T00:17:48;38.28;;;3.75;;
26486;SDS011;14425;56.136;40.360;2024-03-17T00:20:13;38.47;;;4.28;;
26486;SDS011;14425;56.136;40.360;2024-03-17T00:22:48;39.88;;;4.00;;
26486;SDS011;14425;56.136;40.360;2024-03-17T00:25:14;24.77;;;4.00;;
26486;SDS011;14425;56.136;40.360;2024-03-17T00:27:39;51.92;;;3.95;;
26486;SDS011;14425;56.136;40.360;2024-03-17T00:30:08;28.23;;;4.60;;
26486;SDS011;14425;56.136;40.360;2024-03-17T00:32:37;26.45;;;3.47;;
26486;SDS011;14425;56.136;40.360;2024-03-17T00:35:03;34.33;;;4.15;;
26486;SDS011;14425;56.136;40.360;2024-03-17T00:37:30;33.05;;;4.68;;
26486;SDS011;14425;56.136;40.360;2024-03-17T00:39:55;21.02;;;2.88;;
26486;SDS011;14425;56.136;40.360;2024-03-17T00:42:21;27.45;;;3.30;;
26486;SDS011;14425;56.136;40.360;2024-03-17T00:44:46;28.35;;;3.45;;
26486;SDS011;14425;56.136;40.360;2024-03-17T00:47:11;42.85;;;5.13;;
26486;SDS011;14425;56.136;40.360;2024-03-17T00:49:37;33.22;;;4.88;;
26486;SDS011;14425;56.136;40.360;2024-03-17T00:52:02;18.48;;;3.42;;
26486;SDS011;14425;56.136;40.360;2024-03-17T00:54:28;44.45;;;4.03;;
26486;SDS011;14425;56.136;40.360;2024-03-17T00:56:53;32.00;;;4.13;;
26486;SDS011;14425;56.136;40.360;2024-03-17T00:59:19;31.15;;;3.47;;
26486;SDS011;14425;56.136;40.360;2024-03-17T01:01:44;14.80;;;3.40;;
26486;SDS011;14425;56.136;40.360;2024-03-17T01:04:10;23.88;;;3.92;;
26486;SDS011;14425;56.136;40.360;2024-03-17T01:06:35;44.88;;;3.90;;
26486;SDS011;14425;56.136;40.360;2024-03-17T01:09:01;31.55;;;4.32;;
26486;SDS011;14425;56.136;40.360;2024-03-17T01:11:26;26.08;;;4.03;;
26486;SDS011;14425;56.136;40.360;2024-03-17T01:13:52;30.30;;;3.95;;
26486;SDS011;14425;56.136;40.360;2024-03-17T01:16:18;27.30;;;4.45;;
26486;SDS011;14425;56.136;40.360;2024-03-17T01:18:43;31.88;;;5.63;;
26486;SDS011;14425;56.136;40.360;2024-03-17T01:21:10;48.70;;;5.35;;
26486;SDS011;14425;56.136;40.360;2024-03-17T01:23:36;33.88;;;4.05;;
26486;SDS011;14425;56.136;40.360;2024-03-17T01:26:02;44.75;;;4.30;;
26486;SDS011;14425;56.136;40.360;2024-03-17T01:28:27;35.38;;;3.63;;
26486;SDS011;14425;56.136;40.360;2024-03-17T01:30:53;45.17;;;7.93;;
26486;SDS011;14425;56.136;40.360;2024-03-17T01:33:18;49.47;;;4.35;;
26486;SDS011;14425;56.136;40.360;2024-03-17T01:35:44;39.83;;;4.60;;
26486;SDS011;14425;56.136;40.360;2024-03-17T01:38:09;46.55;;;5.65;;
26486;SDS011;14425;56.136;40.360;2024-03-17T01:40:38;48.53;;;4.10;;
26486;SDS011;14425;56.136;40.360;2024-03-17T01:43:04;49.33;;;5.90;;
26486;SDS011;14425;56.136;40.360;2024-03-17T01:45:30;54.92;;;5.70;;
26486;SDS011;14425;56.136;40.360;2024-03-17T01:47:57;47.38;;;7.50;;
26486;SDS011;14425;56.136;40.360;2024-03-17T01:50:23;48.72;;;5.20;;
26486;SDS011;14425;56.136;40.360;2024-03-17T01:52:51;42.85;;;5.35;;
26486;SDS011;14425;56.136;40.360;2024-03-17T01:55:17;48.08;;;5.18;;
26486;SDS011;14425;56.136;40.360;2024-03-17T01:57:42;55.95;;;5.97;;
26486;SDS011;14425;56.136;40.360;2024-03-17T02:00:09;51.92;;;5.35;;
26486;SDS011;14425;56.136;40.360;2024-03-17T02:02:34;52.38;;;7.85;;
26486;SDS011;14425;56.136;40.360;2024-03-17T02:05:01;32.60;;;5.53;;
26486;SDS011;14425;56.136;40.360;2024-03-17T02:07:27;57.00;;;5.10;;
26486;SDS011;14425;56.136;40.360;2024-03-17T02:09:52;48.47;;;4.88;;
26486;SDS011;14425;56.136;40.360;2024-03-17T02:12:18;53.42;;;8.00;;
26486;SDS011;14425;56.136;40.360;2024-03-17T02:14:46;43.20;;;5.32;;
26486;SDS011;14425;56.136;40.360;2024-03-17T02:17:11;38.47;;;5.00;;
26486;SDS011;14425;56.136;40.360;2024-03-17T02:19:37;49.70;;;5.47;;
26486;SDS011;14425;56.136;40.360;2024-03-17T02:22:02;49.20;;;6.10;;
26486;SDS011;14425;56.136;40.360;2024-03-17T02:24:28;55.80;;;9.15;;
26486;SDS011;14425;56.136;40.360;2024-03-17T02:26:54;54.45;;;7.28;;
26486;SDS011;14425;56.136;40.360;2024-03-17T02:29:19;41.42;;;5.80;;
26486;SDS011;14425;56.136;40.360;2024-03-17T02:31:45;81.57;;;7.57;;
26486;SDS011;14425;56.136;40.360;2024-03-17T02:34:11;39.53;;;4.78;;
26486;SDS011;14425;56.136;40.360;2024-03-17T02:36:36;60.85;;;6.30;;
26486;SDS011;14425;56.136;40.360;2024-03-17T02:39:02;62.80;;;7.28;;
26486;SDS011;14425;56.136;40.360;2024-03-17T02:41:46;70.55;;;6.13;;
26486;SDS011;14425;56.136;40.360;2024-03-17T02:44:11;44.78;;;5.68;;
26486;SDS011;14425;56.136;40.360;2024-03-17T02:46:37;49.00;;;5.63;;
26486;SDS011;14425;56.136;40.360;2024-03-17T02:49:03;69.20;;;8.43;;
26486;SDS011;14425;56.136;40.360;2024-03-17T02:51:28;45.38;;;6.03;;
26486;SDS011;14425;56.136;40.360;2024-03-17T02:53:54;50.65;;;6.45;;
26486;SDS011;14425;56.136;40.360;2024-03-17T02:56:19;46.92;;;4.70;;
26486;SDS011;14425;56.136;40.360;2024-03-17T02:58:46;56.97;;;6.43;;
26486;SDS011;14425;56.136;40.360;2024-03-17T03:01:12;56.97;;;6.25;;
26486;SDS011;14425;56.136;40.360;2024-03-17T03:03:38;80.93;;;6.90;;
26486;SDS011;14425;56.136;40.360;2024-03-17T03:06:03;56.78;;;5.30;;
26486;SDS011;14425;56.136;40.360;2024-03-17T03:08:35;67.70;;;7.80;;
26486;SDS011;14425;56.136;40.360;2024-03-17T03:11:01;63.60;;;6.10;;
26486;SDS011;14425;56.136;40.360;2024-03-17T03:13:26;50.92;;;5.85;;
26486;SDS011;14425;56.136;40.360;2024-03-17T03:15:51;68.82;;;6.60;;
26486;SDS011;14425;56.136;40.360;2024-03-17T03:18:18;70.45;;;7.78;;
26486;SDS011;14425;56.136;40.360;2024-03-17T03:20:49;55.05;;;6.35;;
26486;SDS011;14425;56.136;40.360;2024-03-17T03:23:15;76.47;;;6.85;;
26486;SDS011;14425;56.136;40.360;2024-03-17T03:25:41;72.22;;;9.80;;
26486;SDS011;14425;56.136;40.360;2024-03-17T03:28:06;71.68;;;6.65;;
26486;SDS011;14425;56.136;40.360;2024-03-17T03:30:35;72.05;;;6.78;;
26486;SDS011;14425;56.136;40.360;2024-03-17T03:33:00;78.38;;;6.32;;
26486;SDS011;14425;56.136;40.360;2024-03-17T03:35:29;75.13;;;7.18;;
26486;SDS011;14425;56.136;40.360;2024-03-17T03:37:55;57.80;;;5.53;;
26486;SDS011;14425;56.136;40.360;2024-03-17T03:40:21;44.33;;;5.28;;
26486;SDS011;14425;56.136;40.360;2024-03-17T03:42:47;66.60;;;6.72;;
26486;SDS011;14425;56.136;40.360;2024-03-17T03:45:12;61.10;;;6.25;;
26486;SDS011;14425;56.136;40.360;2024-03-17T03:47:41;57.50;;;7.70;;
26486;SDS011;14425;56.136;40.360;2024-03-17T03:50:10;73.00;;;6.75;;
26486;SDS011;14425;56.136;40.360;2024-03-17T03:52:39;70.13;;;5.80;;
26486;SDS011;14425;56.136;40.360;2024-03-17T03:55:06;56.13;;;6.22;;
26486;SDS011;14425;56.136;40.360;2024-03-17T03:57:36;70.32;;;8.00;;
26486;SDS011;14425;56.136;40.360;2024-03-17T04:00:02;69.10;;;6.93;;
26486;SDS011;14425;56.136;40.360;2024-03-17T04:02:38;67.38;;;6.85;;
26486;SDS011;14425;56.136;40.360;2024-03-17T04:05:03;60.25;;;6.53;;
26486;SDS011;14425;56.136;40.360;2024-03-17T04:07:29;62.47;;;6.90;;
26486;SDS011;14425;56.136;40.360;2024-03-17T04:09:54;74.53;;;8.45;;
26486;SDS011;14425;56.136;40.360;2024-03-17T04:12:20;39.65;;;5.50;;
26486;SDS011;14425;56.136;40.360;2024-03-17T04:14:45;66.03;;;6.68;;
26486;SDS011;14425;56.136;40.360;2024-03-17T04:17:12;67.03;;;6.65;;
26486;SDS011;14425;56.136;40.360;2024-03-17T04:19:37;61.47;;;5.45;;
26486;SDS011;14425;56.136;40.360;2024-03-17T04:22:02;46.53;;;5.70;;
26486;SDS011;14425;56.136;40.360;2024-03-17T04:24:28;62.40;;;7.13;;
26486;SDS011;14425;56.136;40.360;2024-03-17T04:26:53;63.58;;;7.88;;
26486;SDS011;14425;56.136;40.360;2024-03-17T04:29:19;57.22;;;5.93;;
26486;SDS011;14425;56.136;40.360;2024-03-17T04:31:45;59.83;;;9.43;;
26486;SDS011;14425;56.136;40.360;2024-03-17T04:34:14;54.63;;;5.80;;
26486;SDS011;14425;56.136;40.360;2024-03-17T04:36:40;50.83;;;6.55;;
26486;SDS011;14425;56.136;40.360;2024-03-17T04:39:05;75.47;;;9.40;;
26486;SDS011;14425;56.136;40.360;2024-03-17T04:41:33;62.67;;;8.35;;
26486;SDS011;14425;56.136;40.360;2024-03-17T04:43:59;70.07;;;6.63;;
26486;SDS011;14425;56.136;40.360;2024-03-17T04:46:24;71.53;;;7.75;;
26486;SDS011;14425;56.136;40.360;2024-03-17T04:48:51;75.43;;;7.22;;
26486;SDS011;14425;56.136;40.360;2024-03-17T04:51:17;74.43;;;8.45;;
26486;SDS011;14425;56.136;40.360;2024-03-17T04:53:43;62.25;;;6.95;;
26486;SDS011;14425;56.136;40.360;2024-03-17T04:56:08;49.72;;;7.60;;
26486;SDS011;14425;56.136;40.360;2024-03-17T04:58:34;78.90;;;6.88;;
26486;SDS011;14425;56.136;40.360;2024-03-17T05:01:03;43.03;;;6.18;;
26486;SDS011;14425;56.136;40.360;2024-03-17T05:03:29;77.03;;;7.90;;
26486;SDS011;14425;56.136;40.360;2024-03-17T05:05:58;66.97;;;7.57;;
26486;SDS011;14425;56.136;40.360;2024-03-17T05:08:26;56.70;;;7.57;;
26486;SDS011;14425;56.136;40.360;2024-03-17T05:11:01;51.13;;;6.47;;
26486;SDS011;14425;56.136;40.360;2024-03-17T05:13:36;70.32;;;8.52;;
26486;SDS011;14425;56.136;40.360;2024-03-17T05:16:05;61.20;;;6.57;;
26486;SDS011;14425;56.136;40.360;2024-03-17T05:18:30;85.15;;;9.65;;
26486;SDS011;14425;56.136;40.360;2024-03-17T05:23:25;71.30;;;8.80;;
26486;SDS011;14425;56.136;40.360;2024-03-17T05:25:51;54.47;;;6.72;;
26486;SDS011;14425;56.136;40.360;2024-03-17T05:28:17;65.47;;;7.57;;
26486;SDS011;14425;56.136;40.360;2024-03-17T05:30:42;64.32;;;7.88;;
26486;SDS011;14425;56.136;40.360;2024-03-17T05:33:08;57.58;;;7.95;;
26486;SDS011;14425;56.136;40.360;2024-03-17T05:35:33;67.85;;;9.00;;
26486;SDS011;14425;56.136;40.360;2024-03-17T05:37:58;79.07;;;8.32;;
26486;SDS011;14425;56.136;40.360;2024-03-17T05:40:24;77.47;;;8.35;;
26486;SDS011;14425;56.136;40.360;2024-03-17T05:42:49;64.97;;;8.45;;
26486;SDS011;14425;56.136;40.360;2024-03-17T05:45:15;71.78;;;7.38;;
26486;SDS011;14425;56.136;40.360;2024-03-17T05:47:41;68.22;;;6.32;;
26486;SDS011;14425;56.136;40.360;2024-03-17T05:50:07;84.97;;;11.55;;
26486;SDS011;14425;56.136;40.360;2024-03-17T05:52:32;71.95;;;9.05;;
26486;SDS011;14425;56.136;40.360;2024-03-17T05:54:58;71.22;;;7.57;;
26486;SDS011;14425;56.136;40.360;2024-03-17T05:57:23;65.65;;;8.57;;
26486;SDS011;14425;56.136;40.360;2024-03-17T05:59:49;60.63;;;8.23;;
26486;SDS011;14425;56.136;40.360;2024-03-17T06:02:15;82.35;;;11.05;;
26486;SDS011;14425;56.136;40.360;2024-03-17T06:04:41;71.43;;;8.38;;
26486;SDS011;14425;56.136;40.360;2024-03-17T06:07:06;74.47;;;8.50;;
26486;SDS011;14425;56.136;40.360;2024-03-17T06:09:32;67.85;;;8.95;;
26486;SDS011;14425;56.136;40.360;2024-03-17T06:11:57;85.28;;;9.20;;
26486;SDS011;14425;56.136;40.360;2024-03-17T06:14:23;59.25;;;8.68;;
26486;SDS011;14425;56.136;40.360;2024-03-17T06:16:48;69.95;;;8.05;;
26486;SDS011;14425;56.136;40.360;2024-03-17T06:19:14;67.93;;;11.63;;
26486;SDS011;14425;56.136;40.360;2024-03-17T06:21:40;64.47;;;8.45;;
26486;SDS011;14425;56.136;40.360;2024-03-17T06:24:05;56.47;;;9.35;;
26486;SDS011;14425;56.136;40.360;2024-03-17T06:26:31;58.40;;;8.25;;
26486;SDS011;14425;56.136;40.360;2024-03-17T06:29:00;59.28;;;8.82;;
26486;SDS011;14425;56.136;40.360;2024-03-17T06:31:25;57.53;;;7.20;;
26486;SDS011;14425;56.136;40.360;2024-03-17T06:33:51;82.28;;;9.40;;
26486;SDS011;14425;56.136;40.360;2024-03-17T06:36:16;66.32;;;9.50;;
26486;SDS011;14425;56.136;40.360;2024-03-17T06:38:42;58.83;;;8.13;;
26486;SDS011;14425;56.136;40.360;2024-03-17T06:41:11;76.53;;;9.35;;
26486;SDS011;14425;56.136;40.360;2024-03-17T06:43:37;54.63;;;8.63;;
26486;SDS011;14425;56.136;40.360;2024-03-17T06:46:04;59.10;;;8.77;;
26486;SDS011;14425;56.136;40.360;2024-03-17T06:48:30;64.28;;;7.22;;
26486;SDS011;14425;56.136;40.360;2024-03-17T06:50:55;66.25;;;7.30;;
26486;SDS011;14425;56.136;40.360;2024-03-17T06:53:21;54.17;;;7.95;;
26486;SDS011;14425;56.136;40.360;2024-03-17T06:55:56;85.13;;;8.57;;
26486;SDS011;14425;56.136;40.360;2024-03-17T06:58:22;70.05;;;8.25;;
26486;SDS011;14425;56.136;40.360;2024-03-17T07:00:58;51.20;;;8.82;;
26486;SDS011;14425;56.136;40.360;2024-03-17T07:03:25;68.35;;;8.68;;
26486;SDS011;14425;56.136;40.360;2024-03-17T07:05:51;50.90;;;8.65;;
26486;SDS011;14425;56.136;40.360;2024-03-17T07:08:17;43.67;;;9.15;;
26486;SDS011;14425;56.136;40.360;2024-03-17T07:11:00;45.33;;;7.47;;
26486;SDS011;14425;56.136;40.360;2024-03-17T07:13:27;57.20;;;8.43;;
26486;SDS011;14425;56.136;40.360;2024-03-17T07:15:53;44.25;;;8.23;;
26486;SDS011;14425;56.136;40.360;2024-03-17T07:18:19;47.08;;;7.07;;
26486;SDS011;14425;56.136;40.360;2024-03-17T07:20:44;47.20;;;8.88;;
26486;SDS011;14425;56.136;40.360;2024-03-17T07:23:13;47.72;;;7.55;;
26486;SDS011;14425;56.136;40.360;2024-03-17T07:25:38;35.25;;;7.45;;
26486;SDS011;14425;56.136;40.360;2024-03-17T07:28:04;53.88;;;8.23;;
26486;SDS011;14425;56.136;40.360;2024-03-17T07:30:29;39.67;;;7.50;;
26486;SDS011;14425;56.136;40.360;2024-03-17T07:32:54;37.15;;;6.68;;
26486;SDS011;14425;56.136;40.360;2024-03-17T07:35:20;49.80;;;7.18;;
26486;SDS011;14425;56.136;40.360;2024-03-17T07:37:46;51.15;;;7.13;;
26486;SDS011;14425;56.136;40.360;2024-03-17T07:40:12;49.35;;;8.60;;
26486;SDS011;14425;56.136;40.360;2024-03-17T07:42:37;45.95;;;7.72;;
26486;SDS011;14425;56.136;40.360;2024-03-17T07:45:03;39.47;;;7.57;;
26486;SDS011;14425;56.136;40.360;2024-03-17T07:47:30;55.60;;;7.85;;
26486;SDS011;14425;56.136;40.360;2024-03-17T07:50:04;46.90;;;7.27;;
26486;SDS011;14425;56.136;40.360;2024-03-17T07:52:33;45.50;;;9.15;;
26486;SDS011;14425;56.136;40.360;2024-03-17T07:54:59;51.05;;;6.57;;
26486;SDS011;14425;56.136;40.360;2024-03-17T07:57:24;51.45;;;8.60;;
26486;SDS011;14425;56.136;40.360;2024-03-17T07:59:50;38.00;;;6.22;;
26486;SDS011;14425;56.136;40.360;2024-03-17T08:02:16;36.55;;;5.28;;
26486;SDS011;14425;56.136;40.360;2024-03-17T08:04:42;30.92;;;4.88;;
26486;SDS011;14425;56.136;40.360;2024-03-17T08:07:09;44.75;;;6.78;;
26486;SDS011;14425;56.136;40.360;2024-03-17T08:09:35;35.05;;;6.00;;
26486;SDS011;14425;56.136;40.360;2024-03-17T08:12:04;34.15;;;6.35;;
26486;SDS011;14425;56.136;40.360;2024-03-17T08:14:30;30.67;;;5.82;;
26486;SDS011;14425;56.136;40.360;2024-03-17T08:16:56;46.75;;;5.68;;
26486;SDS011;14425;56.136;40.360;2024-03-17T08:19:21;41.53;;;8.95;;
26486;SDS011;14425;56.136;40.360;2024-03-17T08:21:47;35.42;;;5.18;;
26486;SDS011;14425;56.136;40.360;2024-03-17T08:24:13;40.95;;;6.93;;
26486;SDS011;14425;56.136;40.360;2024-03-17T08:26:39;61.13;;;6.93;;
26486;SDS011;14425;56.136;40.360;2024-03-17T08:29:05;45.58;;;6.75;;
26486;SDS011;14425;56.136;40.360;2024-03-17T08:31:34;35.20;;;7.43;;
26486;SDS011;14425;56.136;40.360;2024-03-17T08:33:59;37.67;;;5.90;;
26486;SDS011;14425;56.136;40.360;2024-03-17T08:36:25;40.95;;;6.25;;
26486;SDS011;14425;56.136;40.360;2024-03-17T08:38:53;49.08;;;5.85;;
26486;SDS011;14425;56.136;40.360;2024-03-17T08:41:20;45.15;;;8.20;;
26486;SDS011;14425;56.136;40.360;2024-03-17T08:43:45;40.78;;;7.28;;
26486;SDS011;14425;56.136;40.360;2024-03-17T08:46:11;54.90;;;7.00;;
26486;SDS011;14425;56.136;40.360;2024-03-17T08:48:39;44.40;;;6.15;;
26486;SDS011;14425;56.136;40.360;2024-03-17T08:51:05;46.92;;;6.35;;
26486;SDS011;14425;56.136;40.360;2024-03-17T08:53:31;39.13;;;6.13;;
26486;SDS011;14425;56.136;40.360;2024-03-17T08:55:59;31.02;;;7.20;;
26486;SDS011;14425;56.136;40.360;2024-03-17T08:58:26;32.72;;;5.03;;
26486;SDS011;14425;56.136;40.360;2024-03-17T09:00:51;32.15;;;4.97;;
26486;SDS011;14425;56.136;40.360;2024-03-17T09:03:17;40.00;;;5.78;;
26486;SDS011;14425;56.136;40.360;2024-03-17T09:05:44;46.15;;;6.55;;
26486;SDS011;14425;56.136;40.360;2024-03-17T09:08:15;42.60;;;7.45;;
26486;SDS011;14425;56.136;40.360;2024-03-17T09:10:41;40.60;;;5.63;;
26486;SDS011;14425;56.136;40.360;2024-03-17T09:13:07;47.53;;;6.10;;
26486;SDS011;14425;56.136;40.360;2024-03-17T09:15:36;35.10;;;6.47;;
26486;SDS011;14425;56.136;40.360;2024-03-17T09:18:02;45.55;;;5.10;;
26486;SDS011;14425;56.136;40.360;2024-03-17T09:20:28;42.05;;;5.78;;
26486;SDS011;14425;56.136;40.360;2024-03-17T09:22:54;43.28;;;5.07;;
26486;SDS011;14425;56.136;40.360;2024-03-17T09:25:19;40.10;;;6.30;;
26486;SDS011;14425;56.136;40.360;2024-03-17T09:27:45;48.60;;;4.75;;
26486;SDS011;14425;56.136;40.360;2024-03-17T09:30:11;44.40;;;6.32;;
26486;SDS011;14425;56.136;40.360;2024-03-17T09:32:36;43.70;;;5.40;;
26486;SDS011;14425;56.136;40.360;2024-03-17T09:35:02;37.25;;;4.25;;
26486;SDS011;14425;56.136;40.360;2024-03-17T09:37:29;41.95;;;6.32;;
26486;SDS011;14425;56.136;40.360;2024-03-17T09:39:59;23.92;;;4.90;;
26486;SDS011;14425;56.136;40.360;2024-03-17T09:42:26;31.27;;;5.28;;
26486;SDS011;14425;56.136;40.360;2024-03-17T09:44:52;33.80;;;4.72;;
26486;SDS011;14425;56.136;40.360;2024-03-17T09:47:19;43.63;;;4.95;;
26486;SDS011;14425;56.136;40.360;2024-03-17T09:49:46;38.85;;;5.72;;
26486;SDS011;14425;56.136;40.360;2024-03-17T09:52:14;29.60;;;4.72;;
26486;SDS011;14425;56.136;40.360;2024-03-17T09:57:08;30.13;;;4.87;;
26486;SDS011;14425;56.136;40.360;2024-03-17T09:59:40;35.75;;;5.97;;
26486;SDS011;14425;56.136;40.360;2024-03-17T10:02:06;35.28;;;6.70;;
26486;SDS011;14425;56.136;40.360;2024-03-17T10:04:41;34.38;;;4.97;;
26486;SDS011;14425;56.136;40.360;2024-03-17T10:07:06;33.05;;;5.97;;
26486;SDS011;14425;56.136;40.360;2024-03-17T10:09:32;38.13;;;4.95;;
26486;SDS011;14425;56.136;40.360;2024-03-17T10:11:57;31.38;;;4.25;;
26486;SDS011;14425;56.136;40.360;2024-03-17T10:14:23;26.08;;;3.92;;
26486;SDS011;14425;56.136;40.360;2024-03-17T10:16:48;21.80;;;4.38;;
26486;SDS011;14425;56.136;40.360;2024-03-17T10:19:14;22.90;;;4.55;;
26486;SDS011;14425;56.136;40.360;2024-03-17T10:21:44;34.90;;;4.55;;
26486;SDS011;14425;56.136;40.360;2024-03-17T10:24:11;35.35;;;4.53;;
26486;SDS011;14425;56.136;40.360;2024-03-17T10:26:43;32.35;;;5.30;;
26486;SDS011;14425;56.136;40.360;2024-03-17T10:34:18;30.45;;;4.93;;
26486;SDS011;14425;56.136;40.360;2024-03-17T10:36:45;33.47;;;4.70;;
26486;SDS011;14425;56.136;40.360;2024-03-17T10:39:25;58.08;;;4.68;;
26486;SDS011;14425;56.136;40.360;2024-03-17T10:41:57;35.13;;;3.97;;
26486;SDS011;14425;56.136;40.360;2024-03-17T10:44:27;44.60;;;4.32;;
26486;SDS011;14425;56.136;40.360;2024-03-17T10:46:54;19.55;;;4.38;;
26486;SDS011;14425;56.136;40.360;2024-03-17T10:49:21;27.33;;;4.63;;
26486;SDS011;14425;56.136;40.360;2024-03-17T10:51:46;32.17;;;4.97;;
26486;SDS011;14425;56.136;40.360;2024-03-17T10:54:17;20.35;;;3.88;;
26486;SDS011;14425;56.136;40.360;2024-03-17T10:56:44;29.60;;;4.68;;
26486;SDS011;14425;56.136;40.360;2024-03-17T10:59:11;28.92;;;4.18;;
26486;SDS011;14425;56.136;40.360;2024-03-17T11:01:36;25.00;;;4.65;;
26486;SDS011;14425;56.136;40.360;2024-03-17T11:04:02;38.78;;;5.30;;
26486;SDS011;14425;56.136;40.360;2024-03-17T11:06:29;30.17;;;4.65;;
26486;SDS011;14425;56.136;40.360;2024-03-17T11:08:56;30.38;;;4.32;;
26486;SDS011;14425;56.136;40.360;2024-03-17T11:11:34;25.55;;;4.03;;
26486;SDS011;14425;56.136;40.360;2024-03-17T11:14:15;25.70;;;4.30;;
26486;SDS011;14425;56.136;40.360;2024-03-17T11:16:41;26.27;;;4.55;;
26486;SDS011;14425;56.136;40.360;2024-03-17T11:19:06;30.58;;;4.40;;
26486;SDS011;14425;56.136;40.360;2024-03-17T11:21:32;29.33;;;4.75;;
26486;SDS011;14425;56.136;40.360;2024-03-17T11:24:00;26.30;;;4.18;;
26486;SDS011;14425;56.136;40.360;2024-03-17T11:26:27;31.50;;;7.57;;
26486;SDS011;14425;56.136;40.360;2024-03-17T11:28:52;31.83;;;4.72;;
26486;SDS011;14425;56.136;40.360;2024-03-17T11:34:06;35.20;;;7.78;;
26486;SDS011;14425;56.136;40.360;2024-03-17T11:36:35;24.55;;;5.32;;
26486;SDS011;14425;56.136;40.360;2024-03-17T11:39:05;23.98;;;5.88;;
26486;SDS011;14425;56.136;40.360;2024-03-17T11:41:41;28.80;;;5.10;;
26486;SDS011;14425;56.136;40.360;2024-03-17T11:46:57;20.88;;;3.92;;
26486;SDS011;14425;56.136;40.360;2024-03-17T11:49:40;26.67;;;4.03;;
26486;SDS011;14425;56.136;40.360;2024-03-17T11:52:10;35.83;;;5.43;;
26486;SDS011;14425;56.136;40.360;2024-03-17T11:54:39;25.95;;;5.57;;
26486;SDS011;14425;56.136;40.360;2024-03-17T11:57:08;25.23;;;4.32;;
26486;SDS011;14425;56.136;40.360;2024-03-17T11:59:37;42.08;;;7.45;;
26486;SDS011;14425;56.136;40.360;2024-03-17T12:02:14;23.98;;;3.90;;
26486;SDS011;14425;56.136;40.360;2024-03-17T12:04:41;28.35;;;4.90;;
26486;SDS011;14425;56.136;40.360;2024-03-17T12:07:12;28.75;;;4.93;;
26486;SDS011;14425;56.136;40.360;2024-03-17T12:09:42;31.45;;;5.18;;
26486;SDS011;14425;56.136;40.360;2024-03-17T12:12:09;32.45;;;6.00;;
26486;SDS011;14425;56.136;40.360;2024-03-17T12:14:35;32.72;;;4.60;;
26486;SDS011;14425;56.136;40.360;2024-03-17T12:17:01;33.22;;;4.13;;
26486;SDS011;14425;56.136;40.360;2024-03-17T12:19:28;24.98;;;4.85;;
26486;SDS011;14425;56.136;40.360;2024-03-17T12:22:00;25.15;;;4.25;;
26486;SDS011;14425;56.136;40.360;2024-03-17T12:24:30;21.48;;;3.58;;
26486;SDS011;14425;56.136;40.360;2024-03-17T12:26:56;40.22;;;5.05;;
26486;SDS011;14425;56.136;40.360;2024-03-17T12:29:34;31.67;;;4.85;;
26486;SDS011;14425;56.136;40.360;2024-03-17T12:32:05;28.52;;;4.50;;
26486;SDS011;14425;56.136;40.360;2024-03-17T12:34:36;40.35;;;5.03;;
26486;SDS011;14425;56.136;40.360;2024-03-17T12:37:02;27.50;;;3.67;;
26486;SDS011;14425;56.136;40.360;2024-03-17T12:39:32;41.85;;;5.13;;
26486;SDS011;14425;56.136;40.360;2024-03-17T12:42:10;37.45;;;5.53;;
26486;SDS011;14425;56.136;40.360;2024-03-17T12:44:40;33.65;;;5.95;;
26486;SDS011;14425;56.136;40.360;2024-03-17T12:47:14;23.75;;;7.28;;
26486;SDS011;14425;56.136;40.360;2024-03-17T12:49:44;31.63;;;6.82;;
26486;SDS011;14425;56.136;40.360;2024-03-17T12:52:15;23.10;;;4.57;;
26486;SDS011;14425;56.136;40.360;2024-03-17T12:54:42;24.30;;;4.50;;
26486;SDS011;14425;56.136;40.360;2024-03-17T12:57:15;28.38;;;5.93;;
26486;SDS011;14425;56.136;40.360;2024-03-17T12:59:59;25.58;;;6.63;;
26486;SDS011;14425;56.136;40.360;2024-03-17T13:02:43;21.67;;;4.50;;
26486;SDS011;14425;56.136;40.360;2024-03-17T13:05:18;33.70;;;4.75;;
26486;SDS011;14425;56.136;40.360;2024-03-17T13:07:45;35.35;;;5.15;;
26486;SDS011;14425;56.136;40.360;2024-03-17T13:10:14;28.63;;;5.18;;
26486;SDS011;14425;56.136;40.360;2024-03-17T13:12:40;32.13;;;4.82;;
26486;SDS011;14425;56.136;40.360;2024-03-17T13:15:05;30.85;;;4.85;;
26486;SDS011;14425;56.136;40.360;2024-03-17T13:17:31;19.52;;;4.25;;
26486;SDS011;14425;56.136;40.360;2024-03-17T13:19:59;33.63;;;4.97;;
26486;SDS011;14425;56.136;40.360;2024-03-17T13:22:25;33.90;;;4.70;;
26486;SDS011;14425;56.136;40.360;2024-03-17T13:24:51;25.65;;;4.70;;
26486;SDS011;14425;56.136;40.360;2024-03-17T13:27:16;31.88;;;6.20;;
26486;SDS011;14425;56.136;40.360;2024-03-17T13:29:42;31.88;;;5.30;;
26486;SDS011;14425;56.136;40.360;2024-03-17T13:32:11;39.50;;;6.57;;
26486;SDS011;14425;56.136;40.360;2024-03-17T13:34:37;50.25;;;8.00;;
26486;SDS011;14425;56.136;40.360;2024-03-17T13:37:05;29.25;;;5.22;;
26486;SDS011;14425;56.136;40.360;2024-03-17T13:39:35;26.05;;;4.95;;
26486;SDS011;14425;56.136;40.360;2024-03-17T13:42:01;32.42;;;4.53;;
26486;SDS011;14425;56.136;40.360;2024-03-17T13:44:28;16.73;;;4.93;;
26486;SDS011;14425;56.136;40.360;2024-03-17T13:46:54;43.30;;;5.95;;
26486;SDS011;14425;56.136;40.360;2024-03-17T13:49:19;26.02;;;5.85;;
26486;SDS011;14425;56.136;40.360;2024-03-17T13:51:44;33.67;;;5.38;;
26486;SDS011;14425;56.136;40.360;2024-03-17T13:54:10;31.20;;;4.05;;
26486;SDS011;14425;56.136;40.360;2024-03-17T13:56:39;17.75;;;4.40;;
26486;SDS011;14425;56.136;40.360;2024-03-17T13:59:05;40.40;;;5.88;;
26486;SDS011;14425;56.136;40.360;2024-03-17T14:01:33;31.85;;;6.28;;
26486;SDS011;14425;56.136;40.360;2024-03-17T14:03:59;19.63;;;7.00;;
26486;SDS011;14425;56.136;40.360;2024-03-17T14:06:25;28.38;;;5.85;;
26486;SDS011;14425;56.136;40.360;2024-03-17T14:08:50;34.17;;;5.78;;
26486;SDS011;14425;56.136;40.360;2024-03-17T14:11:16;31.02;;;6.22;;
26486;SDS011;14425;56.136;40.360;2024-03-17T14:13:44;40.08;;;6.85;;
26486;SDS011;14425;56.136;40.360;2024-03-17T14:16:10;24.20;;;5.60;;
26486;SDS011;14425;56.136;40.360;2024-03-17T14:18:36;32.95;;;6.20;;
26486;SDS011;14425;56.136;40.360;2024-03-17T14:21:01;40.50;;;6.38;;
26486;SDS011;14425;56.136;40.360;2024-03-17T14:23:27;43.10;;;6.50;;
26486;SDS011;14425;56.136;40.360;2024-03-17T14:25:55;37.50;;;5.72;;
26486;SDS011;14425;56.136;40.360;2024-03-17T14:28:20;32.75;;;5.80;;
26486;SDS011;14425;56.136;40.360;2024-03-17T14:30:47;44.95;;;5.22;;
26486;SDS011;14425;56.136;40.360;2024-03-17T14:33:12;28.33;;;5.78;;
26486;SDS011;14425;56.136;40.360;2024-03-17T14:35:38;31.15;;;5.90;;